Salisbury, United Kingdom
Current Conditions -  °F | °C
As of 4:21 PM on Saturday 22 Nov 2014 (Local Time) from EGDM Reporting Station
Light Rain Light Rain  
Wind Chill: 55°   Ceiling: 1800
Heat Index: 55°   Visibility: 2.5mi
Dew Point: 55°   Wind: 5mph
Humidity: 100%   Direction: 210°SSW
Pressure: 29.91"   Gusts: NA
Location:  51.07°N, 1.8°W
Report Text: EGDM 221621Z 21004KT 4000 -RADZ SCT004 SCT010 BKN018 13/13 Q1013 YLO2 TEMPO 7000 BR YLO2
Loading
Personal Weather Stations






























Interactive Weather Map New forecast layout! Learn more

10-Day Weather Forecast

Advertisements
Track Severe Weather on mobile